Time;durP1;ratioP1;P1;durP2;ratioP2;P2;SDS_P1;SDS_P2;PMS_P1;PMS_P2;Temp;Humidity;BMP_temperature;BMP_pressure;BME280_temperature;BME280_humidity;BME280_pressure;Samples;Min_cycle;Max_cycle;Signal;HPM_P1;HPM_P2
2023/09/10 00:00:14;;;;;;;9.40;5.10;;;;;;;17.18;100.00;101008.19;6028877;28;20044;-66
2023/09/10 00:03:09;;;;;;;8.75;5.25;;;;;;;16.95;100.00;101011.94;6028396;28;20026;-66
2023/09/10 00:06:06;;;;;;;8.30;5.37;;;;;;;17.04;100.00;101002.81;6028631;28;20018;-66
2023/09/10 00:09:01;;;;;;;9.50;5.40;;;;;;;17.60;100.00;101017.56;6028644;28;20109;-66
2023/09/10 00:11:56;;;;;;;9.30;4.97;;;;;;;17.52;100.00;101021.13;6028316;28;20084;-66
2023/09/10 00:14:51;;;;;;;6.97;4.57;;;;;;;17.71;100.00;101017.94;6027022;28;20029;-66
2023/09/10 00:17:47;;;;;;;8.70;5.00;;;;;;;17.20;100.00;101022.25;6028204;28;20053;-66
2023/09/10 00:20:42;;;;;;;8.32;4.97;;;;;;;17.51;100.00;101003.34;6028757;28;20496;-66
2023/09/10 00:23:38;;;;;;;9.52;5.32;;;;;;;17.17;100.00;101011.09;6026909;28;20553;-66
2023/09/10 00:26:34;;;;;;;8.93;5.20;;;;;;;17.40;100.00;100995.75;6028297;28;20500;-66
2023/09/10 00:29:29;;;;;;;9.43;5.03;;;;;;;17.53;100.00;100989.78;6027668;28;20026;-66
2023/09/10 00:32:25;;;;;;;7.87;4.90;;;;;;;17.64;100.00;101011.63;6028217;28;20050;-67
2023/09/10 00:35:20;;;;;;;9.57;4.80;;;;;;;17.70;100.00;101002.00;6026579;28;20026;-66
2023/09/10 00:38:16;;;;;;;10.43;4.93;;;;;;;17.71;100.00;101009.03;6027910;28;20296;-66
2023/09/10 00:41:11;;;;;;;9.47;4.97;;;;;;;17.60;100.00;100993.41;6028035;28;20034;-67
2023/09/10 00:44:06;;;;;;;10.60;5.77;;;;;;;17.52;100.00;100994.31;6026650;28;20026;-66
2023/09/10 00:47:03;;;;;;;10.00;5.43;;;;;;;17.69;100.00;100997.69;6027386;28;20046;-68
2023/09/10 00:49:58;;;;;;;8.40;5.32;;;;;;;17.48;100.00;101014.44;6027609;28;20034;-66
2023/09/10 00:52:56;;;;;;;9.07;4.80;;;;;;;17.46;100.00;101010.28;6027553;28;20038;-68
2023/09/10 00:55:51;;;;;;;7.78;5.15;;;;;;;17.32;100.00;100984.28;6027482;28;20027;-66
2023/09/10 00:58:47;;;;;;;9.15;4.93;;;;;;;17.20;100.00;100989.28;6042194;28;20089;-66
2023/09/10 01:01:43;;;;;;;9.52;5.07;;;;;;;16.89;100.00;101001.94;6027287;28;20034;-65
2023/09/10 01:04:38;;;;;;;8.65;5.03;;;;;;;16.62;100.00;101012.19;6026967;28;20027;-68
2023/09/10 01:07:34;;;;;;;9.17;5.33;;;;;;;16.37;100.00;101013.31;6026621;28;20038;-68
2023/09/10 01:10:35;;;;;;;8.63;5.30;;;;;;;15.92;100.00;101013.19;6027515;28;20023;-65
2023/09/10 01:13:36;;;;;;;9.35;5.00;;;;;;;15.81;100.00;101016.25;6025020;28;20113;-67
2023/09/10 01:16:44;;;;;;;8.65;5.50;;;;;;;15.74;100.00;101036.63;6042254;28;20026;-68
2023/09/10 01:19:46;;;;;;;9.32;5.45;;;;;;;16.09;100.00;101036.19;6020241;28;20121;-68
2023/09/10 01:22:57;;;;;;;9.93;5.40;;;;;;;16.55;100.00;101029.13;6041970;28;20041;-65
2023/09/10 01:25:53;;;;;;;9.32;5.35;;;;;;;16.04;100.00;101020.66;6041906;28;20026;-66
2023/09/10 01:28:48;;;;;;;11.60;5.53;;;;;;;16.35;100.00;101026.03;6026355;28;20030;-66
2023/09/10 01:31:44;;;;;;;11.10;5.50;;;;;;;16.30;100.00;101028.41;6026939;28;20034;-66
2023/09/10 01:34:49;;;;;;;9.93;5.63;;;;;;;16.46;100.00;101012.25;6025898;28;20752;-66
2023/09/10 01:37:55;;;;;;;9.95;5.20;;;;;;;16.27;100.00;101023.41;6026772;28;20066;-67
2023/09/10 01:41:01;;;;;;;11.02;5.75;;;;;;;15.73;100.00;101024.28;6026112;28;20045;-66
2023/09/10 01:43:57;;;;;;;9.80;5.72;;;;;;;15.86;100.00;101013.88;6034941;28;20032;-66
2023/09/10 01:46:53;;;;;;;10.57;5.65;;;;;;;15.86;100.00;101014.72;6025175;28;20030;-66
2023/09/10 01:49:48;;;;;;;12.38;6.13;;;;;;;16.24;100.00;101021.06;6026378;28;20034;-68
2023/09/10 01:52:43;;;;;;;10.82;6.15;;;;;;;16.05;100.00;101019.66;6025650;28;20034;-66
2023/09/10 01:55:39;;;;;;;11.33;5.77;;;;;;;16.12;100.00;101014.44;6024800;28;20025;-65
2023/09/10 01:58:34;;;;;;;10.70;5.80;;;;;;;16.21;100.00;101013.41;6026177;28;20058;-66
2023/09/10 02:01:29;;;;;;;8.40;5.60;;;;;;;16.09;100.00;101012.09;6026291;28;20022;-65
2023/09/10 02:04:25;;;;;;;9.77;5.80;;;;;;;16.42;100.00;101027.00;6025290;28;20308;-66
2023/09/10 02:07:20;;;;;;;10.27;5.50;;;;;;;16.19;100.00;101025.28;6026284;28;20045;-65
2023/09/10 02:10:15;;;;;;;10.27;5.60;;;;;;;16.11;100.00;101001.25;6025853;28;20030;-66
2023/09/10 02:13:11;;;;;;;11.43;5.80;;;;;;;16.16;100.00;101009.56;6025710;28;20038;-66
2023/09/10 02:16:06;;;;;;;10.90;5.50;;;;;;;16.47;100.00;101008.56;6025736;28;20027;-66
2023/09/10 02:19:02;;;;;;;9.43;5.78;;;;;;;16.64;100.00;101007.47;6025288;28;20110;-66
2023/09/10 02:21:58;;;;;;;9.00;5.03;;;;;;;16.74;100.00;101025.16;6024334;28;20030;-66
2023/09/10 02:24:53;;;;;;;9.93;5.05;;;;;;;16.59;100.00;101017.88;6025202;28;20045;-66
2023/09/10 02:27:48;;;;;;;8.07;5.40;;;;;;;16.23;100.00;101015.88;6025627;28;20469;-65
2023/09/10 02:30:44;;;;;;;9.03;5.33;;;;;;;16.36;100.00;101019.66;6022238;28;20030;-66
2023/09/10 02:33:39;;;;;;;7.73;4.70;;;;;;;16.40;100.00;101014.78;6024607;28;20042;-66
2023/09/10 02:36:34;;;;;;;9.40;5.57;;;;;;;16.41;100.00;101013.78;6025890;28;20041;-66
2023/09/10 02:39:29;;;;;;;9.10;5.17;;;;;;;16.41;100.00;101019.16;6025349;28;20031;-66
2023/09/10 02:42:25;;;;;;;8.87;4.40;;;;;;;16.34;100.00;101040.41;6025661;28;20499;-66
2023/09/10 02:45:20;;;;;;;9.13;5.43;;;;;;;16.11;100.00;101034.19;6024655;28;20038;-66
2023/09/10 02:48:15;;;;;;;7.70;4.83;;;;;;;16.02;100.00;101045.91;6025685;28;20030;-65
2023/09/10 02:51:11;;;;;;;9.30;5.23;;;;;;;16.45;100.00;101047.22;6028025;28;20143;-65
2023/09/10 02:54:06;;;;;;;8.60;4.60;;;;;;;16.52;100.00;101037.50;6028363;28;20042;-65
2023/09/10 02:57:02;;;;;;;7.73;4.73;;;;;;;16.24;100.00;101045.16;6030340;28;20030;-65
2023/09/10 02:59:57;;;;;;;8.10;5.20;;;;;;;16.45;100.00;101042.69;6030040;28;20037;-66
2023/09/10 03:02:54;;;;;;;8.77;5.28;;;;;;;16.41;100.00;101041.41;6030128;28;20026;-66
2023/09/10 03:05:49;;;;;;;8.60;5.22;;;;;;;16.46;100.00;101044.38;6029327;28;20030;-66
2023/09/10 03:08:44;;;;;;;10.47;4.90;;;;;;;16.60;100.00;101050.88;6029967;28;20030;-66
2023/09/10 03:11:41;;;;;;;10.60;5.73;;;;;;;16.40;100.00;101060.31;6029896;28;20034;-66
2023/09/10 03:14:36;;;;;;;9.32;5.13;;;;;;;16.34;100.00;101061.00;6028992;28;20160;-65
2023/09/10 03:17:31;;;;;;;8.80;4.97;;;;;;;16.26;100.00;101053.84;6029991;28;20033;-65
2023/09/10 03:20:27;;;;;;;10.82;5.68;;;;;;;16.12;100.00;101054.56;6029658;28;20085;-66
2023/09/10 03:23:22;;;;;;;8.07;5.47;;;;;;;15.89;100.00;101046.47;6029296;28;20030;-66
2023/09/10 03:26:17;;;;;;;12.53;5.70;;;;;;;15.90;100.00;101052.63;6029734;28;20113;-66
2023/09/10 03:29:12;;;;;;;9.93;5.13;;;;;;;15.71;100.00;101043.16;6029232;28;20045;-67
2023/09/10 03:32:08;;;;;;;9.13;6.10;;;;;;;15.78;100.00;101059.38;6029781;28;20617;-67
2023/09/10 03:35:05;;;;;;;14.63;6.27;;;;;;;15.69;100.00;101052.38;6028487;28;20038;-67
2023/09/10 03:38:00;;;;;;;10.35;5.68;;;;;;;15.79;100.00;101039.66;6029815;28;20312;-67
2023/09/10 03:40:55;;;;;;;10.47;6.10;;;;;;;15.72;100.00;101052.03;6028866;28;20034;-66
2023/09/10 03:43:50;;;;;;;9.83;5.53;;;;;;;15.59;100.00;101041.88;6028001;28;20266;-67
2023/09/10 03:46:46;;;;;;;8.85;5.38;;;;;;;15.52;100.00;101053.41;6029349;28;20097;-67
2023/09/10 03:49:42;;;;;;;11.32;5.72;;;;;;;15.41;100.00;101041.19;6028991;28;20034;-67
2023/09/10 03:52:37;;;;;;;13.13;6.17;;;;;;;15.33;100.00;101038.53;6029306;28;20041;-67
2023/09/10 03:55:32;;;;;;;9.32;5.75;;;;;;;15.37;100.00;101051.41;6028377;28;20026;-67
2023/09/10 03:58:28;;;;;;;11.25;5.80;;;;;;;15.16;100.00;101037.72;6028467;28;20046;-67
2023/09/10 04:01:23;;;;;;;11.53;6.30;;;;;;;15.13;100.00;101037.22;6028898;28;20405;-67
2023/09/10 04:04:18;;;;;;;9.10;5.83;;;;;;;15.25;100.00;101046.53;6026944;28;20536;-67
2023/09/10 04:07:14;;;;;;;10.63;6.13;;;;;;;15.21;100.00;101039.88;6028811;28;20277;-67
2023/09/10 04:10:09;;;;;;;12.73;6.43;;;;;;;15.42;100.00;101045.53;6043638;28;20030;-65
2023/09/10 04:13:05;;;;;;;12.25;6.45;;;;;;;15.52;100.00;101030.19;6027833;28;20277;-65
2023/09/10 04:16:00;;;;;;;10.77;6.53;;;;;;;15.55;100.00;101026.31;6028223;28;20450;-66
2023/09/10 04:18:55;;;;;;;10.63;6.43;;;;;;;15.39;100.00;101046.72;6027164;28;20159;-66
2023/09/10 04:21:51;;;;;;;11.17;6.10;;;;;;;15.29;100.00;101046.06;6028788;28;20270;-66
2023/09/10 04:24:46;;;;;;;12.30;5.75;;;;;;;15.26;100.00;101038.38;6027824;28;20473;-65
2023/09/10 04:27:41;;;;;;;9.77;5.57;;;;;;;15.19;100.00;101048.06;6028315;28;20064;-65
2023/09/10 04:30:36;;;;;;;12.23;6.70;;;;;;;15.24;100.00;101053.75;6028319;28;20038;-65
2023/09/10 04:33:32;;;;;;;10.40;6.17;;;;;;;15.16;100.00;101043.06;6027279;28;20104;-66
2023/09/10 04:36:27;;;;;;;11.93;6.67;;;;;;;15.27;100.00;101058.72;6028076;28;20093;-65
2023/09/10 04:39:22;;;;;;;12.90;7.33;;;;;;;15.22;100.00;101046.91;6028021;28;20424;-66
2023/09/10 04:42:18;;;;;;;11.25;6.90;;;;;;;15.38;100.00;101049.56;6027292;28;20055;-65
2023/09/10 04:45:13;;;;;;;14.07;8.47;;;;;;;15.34;100.00;101059.75;6026049;28;20097;-66
2023/09/10 04:48:12;;;;;;;12.75;7.25;;;;;;;15.33;100.00;101052.72;6028083;28;20477;-65
2023/09/10 04:51:07;;;;;;;10.90;6.75;;;;;;;15.37;100.00;101048.72;6027635;28;20038;-65
2023/09/10 04:54:03;;;;;;;17.10;9.77;;;;;;;15.41;100.00;101052.72;6027308;28;20069;-65
2023/09/10 04:56:58;;;;;;;13.90;7.53;;;;;;;15.39;100.00;101053.88;6027817;28;20026;-66
2023/09/10 04:59:53;;;;;;;16.83;8.10;;;;;;;15.42;100.00;101074.94;6027967;28;20034;-66
2023/09/10 05:02:48;;;;;;;13.50;7.80;;;;;;;15.47;100.00;101078.81;6027537;28;20070;-65
2023/09/10 05:05:44;;;;;;;15.90;8.47;;;;;;;15.37;100.00;101067.44;6027096;28;20038;-66
2023/09/10 05:08:39;;;;;;;16.10;9.03;;;;;;;15.40;100.00;101067.09;6026692;28;20104;-65
2023/09/10 05:11:34;;;;;;;16.20;8.70;;;;;;;15.41;100.00;101062.56;6027267;28;20297;-65
2023/09/10 05:14:30;;;;;;;16.90;8.73;;;;;;;15.52;100.00;101090.84;6026623;28;20101;-65
2023/09/10 05:17:25;;;;;;;15.90;8.63;;;;;;;15.61;100.00;101090.66;6026071;28;20285;-65
2023/09/10 05:20:22;;;;;;;15.67;8.40;;;;;;;15.60;100.00;101093.50;6027442;28;20038;-65
2023/09/10 05:23:17;;;;;;;16.02;8.40;;;;;;;15.67;100.00;101094.50;6026629;28;20058;-65
2023/09/10 05:26:12;;;;;;;14.63;8.10;;;;;;;15.58;100.00;101095.50;6027294;28;20034;-65
2023/09/10 05:29:08;;;;;;;14.57;7.53;;;;;;;15.87;100.00;101109.97;6026979;28;20038;-67
2023/09/10 05:32:03;;;;;;;15.00;7.13;;;;;;;15.95;100.00;101101.94;6027014;28;20034;-67
2023/09/10 05:34:58;;;;;;;13.00;7.45;;;;;;;16.23;100.00;101086.31;6025820;28;20683;-65
2023/09/10 05:37:53;;;;;;;10.67;6.37;;;;;;;16.31;100.00;101088.94;6026710;28;20418;-66
2023/09/10 05:40:49;;;;;;;14.77;6.70;;;;;;;16.58;100.00;101096.53;6027101;28;20030;-65
2023/09/10 05:43:44;;;;;;;13.45;7.15;;;;;;;16.72;100.00;101094.97;6025870;28;20045;-65
2023/09/10 05:46:40;;;;;;;11.57;6.80;;;;;;;16.86;100.00;101110.28;6026587;28;20042;-66
2023/09/10 05:49:37;;;;;;;12.07;7.37;;;;;;;16.95;100.00;101108.41;6026837;28;20026;-65
2023/09/10 05:52:32;;;;;;;15.23;8.30;;;;;;;17.05;100.00;101119.69;6026018;28;20269;-65
2023/09/10 05:55:28;;;;;;;12.50;7.75;;;;;;;17.25;100.00;101112.88;6026098;28;20053;-65
2023/09/10 05:58:24;;;;;;;14.83;7.63;;;;;;;17.27;100.00;101113.50;6026159;28;20045;-65
2023/09/10 06:01:19;;;;;;;12.57;7.57;;;;;;;17.35;100.00;101109.94;6025983;28;20026;-66
2023/09/10 06:04:14;;;;;;;14.03;7.90;;;;;;;17.63;100.00;101103.03;6025800;28;20037;-68
2023/09/10 06:07:10;;;;;;;13.27;8.07;;;;;;;17.82;100.00;101107.88;6026099;28;20030;-65
2023/09/10 06:10:08;;;;;;;13.43;7.93;;;;;;;17.97;100.00;101110.53;6026320;28;20395;-65
2023/09/10 06:13:04;;;;;;;14.98;8.00;;;;;;;18.17;100.00;101117.03;6025870;28;20516;-66
2023/09/10 06:16:00;;;;;;;12.20;7.97;;;;;;;18.22;100.00;101114.63;6024304;28;20038;-67
2023/09/10 06:18:55;;;;;;;14.77;8.32;;;;;;;18.18;100.00;101110.66;6026214;28;20033;-67
2023/09/10 06:21:51;;;;;;;16.53;9.10;;;;;;;18.17;100.00;101125.09;6025580;28;20504;-67
2023/09/10 06:24:46;;;;;;;16.52;8.77;;;;;;;18.28;100.00;101130.84;6025393;28;20292;-67
2023/09/10 06:27:41;;;;;;;16.13;9.60;;;;;;;18.42;100.00;101131.84;6025422;28;20490;-67
2023/09/10 06:30:38;;;;;;;17.38;10.43;;;;;;;18.55;100.00;101109.72;6025301;28;20026;-66
2023/09/10 06:33:33;;;;;;;19.20;11.18;;;;;;;18.78;100.00;101116.59;6024882;28;20440;-67
2023/09/10 06:36:29;;;;;;;19.23;11.13;;;;;;;19.17;100.00;101123.44;6024805;28;20085;-67
2023/09/10 06:39:25;;;;;;;19.58;11.60;;;;;;;19.46;100.00;101129.53;6025315;28;20392;-67
2023/09/10 06:42:20;;;;;;;19.42;12.00;;;;;;;19.47;100.00;101133.06;6025057;28;20085;-67
2023/09/10 06:45:16;;;;;;;22.87;12.10;;;;;;;19.66;100.00;101113.56;6019988;28;20038;-67
2023/09/10 06:48:11;;;;;;;19.00;12.80;;;;;;;19.62;100.00;101117.69;6025355;28;20807;-66
2023/09/10 06:51:06;;;;;;;22.77;13.07;;;;;;;19.92;100.00;101137.97;6022167;28;20676;-67
2023/09/10 06:54:02;;;;;;;22.33;13.50;;;;;;;20.02;100.00;101116.94;6024317;28;20555;-67
2023/09/10 06:56:58;;;;;;;29.75;15.45;;;;;;;20.22;100.00;101114.34;6024371;28;20753;-67
2023/09/10 06:59:53;;;;;;;27.27;15.80;;;;;;;20.38;100.00;101135.63;6025686;28;20026;-66
2023/09/10 07:02:48;;;;;;;25.73;15.33;;;;;;;20.47;100.00;101133.56;6023922;28;20031;-67
2023/09/10 07:05:44;;;;;;;21.13;14.70;;;;;;;20.64;100.00;101121.41;6023906;28;20508;-67
2023/09/10 07:08:39;;;;;;;26.23;15.73;;;;;;;20.82;100.00;101129.78;6024297;28;20048;-66
2023/09/10 07:11:34;;;;;;;26.37;15.97;;;;;;;20.91;100.00;101123.16;6024447;28;20284;-67
2023/09/10 07:14:30;;;;;;;25.17;14.73;;;;;;;21.28;100.00;101128.03;6017314;28;20034;-67
2023/09/10 07:17:25;;;;;;;26.27;14.83;;;;;;;21.32;100.00;101120.38;6024788;28;20091;-67
2023/09/10 07:20:20;;;;;;;25.50;15.65;;;;;;;21.56;100.00;101130.56;6025174;28;20384;-67
2023/09/10 07:23:16;;;;;;;30.43;16.83;;;;;;;21.50;100.00;101127.88;6024977;28;20502;-67
2023/09/10 07:26:11;;;;;;;23.33;14.47;;;;;;;21.71;100.00;101128.50;6025502;28;20030;-67
2023/09/10 07:29:07;;;;;;;24.70;15.82;;;;;;;22.06;97.98;101137.22;6026991;28;20081;-66
2023/09/10 07:32:02;;;;;;;27.50;17.05;;;;;;;22.18;97.50;101135.50;6024715;28;20121;-67
2023/09/10 07:34:58;;;;;;;29.38;17.83;;;;;;;22.30;94.85;101131.13;6023636;28;20040;-66
2023/09/10 07:37:54;;;;;;;28.15;16.92;;;;;;;22.31;96.26;101150.88;6023587;28;20026;-67
2023/09/10 07:40:49;;;;;;;28.23;18.27;;;;;;;22.19;96.56;101142.59;6027782;28;20515;-67
2023/09/10 07:43:44;;;;;;;27.05;17.30;;;;;;;22.30;96.00;101131.13;6028705;28;20070;-67
2023/09/10 07:46:40;;;;;;;31.37;16.97;;;;;;;22.51;94.62;101143.53;6029424;28;20034;-67
2023/09/10 07:49:35;;;;;;;27.58;17.48;;;;;;;22.58;94.29;101146.22;6029112;28;20058;-67
2023/09/10 07:52:30;;;;;;;26.87;16.27;;;;;;;22.54;93.95;101135.81;6028969;28;20042;-67
2023/09/10 07:55:26;;;;;;;28.57;17.40;;;;;;;22.83;92.02;101139.06;6028261;28;20492;-67
2023/09/10 07:58:21;;;;;;;29.52;17.73;;;;;;;23.10;91.10;101146.00;6029046;28;20031;-67
2023/09/10 08:01:16;;;;;;;29.35;17.63;;;;;;;23.18;89.85;101151.16;6029061;28;20041;-67
2023/09/10 08:04:12;;;;;;;30.30;17.00;;;;;;;23.12;89.91;101146.59;6028056;28;20046;-68
2023/09/10 08:07:07;;;;;;;25.05;16.65;;;;;;;23.09;88.96;101136.22;6028822;28;20470;-67
2023/09/10 08:10:03;;;;;;;25.80;16.38;;;;;;;23.49;87.48;101159.28;6028850;28;20066;-67
2023/09/10 08:12:59;;;;;;;24.30;16.00;;;;;;;23.72;86.06;101157.88;6028396;28;20129;-68
2023/09/10 08:15:54;;;;;;;23.30;15.40;;;;;;;23.78;85.44;101154.28;6028078;28;20042;-68
2023/09/10 08:18:49;;;;;;;22.47;15.23;;;;;;;24.02;85.44;101142.59;6030190;28;20037;-68
2023/09/10 08:21:45;;;;;;;27.40;15.33;;;;;;;24.20;83.07;101145.34;6024657;28;21358;-68
2023/09/10 08:24:41;;;;;;;27.60;16.30;;;;;;;24.09;83.35;101159.63;6021397;28;20108;-68
2023/09/10 08:27:36;;;;;;;25.57;15.33;;;;;;;24.33;81.70;101149.78;6029177;28;20539;-68
2023/09/10 08:30:31;;;;;;;25.00;16.10;;;;;;;24.34;81.70;101148.75;6029124;28;20022;-67
2023/09/10 08:33:26;;;;;;;21.57;14.70;;;;;;;24.66;81.30;101145.66;6027572;28;20289;-67
2023/09/10 08:36:22;;;;;;;22.93;15.43;;;;;;;25.01;78.85;101162.13;6027335;28;20058;-68
2023/09/10 08:39:17;;;;;;;26.05;15.93;;;;;;;25.15;78.00;101154.63;6027926;28;20038;-68
2023/09/10 08:42:34;;;;;;;22.52;15.68;;;;;;;25.49;75.86;101158.56;6026519;28;20038;-68
2023/09/10 08:45:30;;;;;;;24.95;16.13;;;;;;;25.26;75.88;101145.69;6025029;28;20041;-67
2023/09/10 08:48:27;;;;;;;21.70;15.27;;;;;;;25.14;76.94;101150.28;6025464;28;20038;-68
2023/09/10 08:51:22;;;;;;;23.13;15.02;;;;;;;25.15;76.61;101138.34;6025548;28;20042;-68
2023/09/10 08:54:18;;;;;;;22.20;14.95;;;;;;;25.42;75.78;101153.19;6031775;28;20038;-68
2023/09/10 08:57:13;;;;;;;25.98;15.35;;;;;;;25.90;74.57;101153.06;6029948;28;20038;-68
2023/09/10 09:00:12;;;;;;;23.45;15.25;;;;;;;25.74;74.04;101157.28;6025986;28;20038;-68
2023/09/10 09:03:08;;;;;;;22.17;16.10;;;;;;;26.02;72.49;101145.72;6026461;28;20030;-68
2023/09/10 09:06:05;;;;;;;26.65;16.50;;;;;;;26.11;71.36;101148.91;6027407;28;20034;-68
2023/09/10 09:09:05;;;;;;;26.45;15.82;;;;;;;26.11;71.48;101148.91;6026333;28;20030;-68
2023/09/10 09:12:02;;;;;;;24.52;15.80;;;;;;;26.43;70.96;101144.75;6027151;28;20034;-68
2023/09/10 09:14:59;;;;;;;25.67;17.17;;;;;;;26.50;69.28;101146.28;6026423;28;20109;-69
2023/09/10 09:17:58;;;;;;;25.63;16.77;;;;;;;26.48;68.83;101155.75;6042524;28;20022;-68
2023/09/10 09:20:57;;;;;;;22.90;15.95;;;;;;;26.84;68.16;101160.91;6026790;28;20031;-68
2023/09/10 09:24:00;;;;;;;22.88;15.27;;;;;;;27.05;67.90;101149.31;6026584;28;20034;-68
2023/09/10 09:26:57;;;;;;;26.90;16.55;;;;;;;27.17;67.81;101158.28;6026941;28;20034;-68
2023/09/10 09:29:53;;;;;;;25.10;16.23;;;;;;;27.14;67.84;101153.31;6025697;28;20401;-68
2023/09/10 09:32:49;;;;;;;20.15;13.77;;;;;;;27.48;65.89;101156.09;6026835;28;20062;-68
2023/09/10 09:35:44;;;;;;;23.65;15.57;;;;;;;27.37;65.98;101159.72;6026039;28;20044;-68
2023/09/10 09:38:44;;;;;;;25.77;15.07;;;;;;;27.43;66.56;101158.75;6027009;28;20148;-67
2023/09/10 09:41:40;;;;;;;23.58;14.63;;;;;;;27.26;66.71;101136.09;6026680;28;20045;-68
2023/09/10 09:44:36;;;;;;;22.13;15.20;;;;;;;27.48;65.98;101162.38;6025806;28;20034;-68
2023/09/10 09:47:32;;;;;;;20.95;14.80;;;;;;;27.24;67.22;101151.81;6026848;28;20038;-68
2023/09/10 09:50:27;;;;;;;23.20;14.50;;;;;;;27.10;67.19;101152.13;6022376;28;20478;-68
2023/09/10 09:53:25;;;;;;;21.87;15.37;;;;;;;27.38;65.89;101151.28;6025171;28;20041;-68
2023/09/10 09:56:21;;;;;;;25.77;16.50;;;;;;;27.47;66.01;101154.47;6026501;28;20026;-68
2023/09/10 09:59:16;;;;;;;22.10;15.50;;;;;;;27.47;67.08;101141.69;6026381;28;20085;-67
2023/09/10 10:02:17;;;;;;;23.95;15.48;;;;;;;27.52;66.23;101151.81;6025776;28;20485;-68
2023/09/10 10:05:13;;;;;;;20.67;13.65;;;;;;;27.39;67.80;101139.31;6025505;28;20038;-68
2023/09/10 10:08:08;;;;;;;22.42;14.93;;;;;;;27.82;64.71;101144.16;6026627;28;20053;-68
2023/09/10 10:11:03;;;;;;;20.10;14.37;;;;;;;27.92;64.11;101125.22;6024855;28;20034;-67
2023/09/10 10:14:00;;;;;;;21.00;13.10;;;;;;;27.88;64.26;101134.16;6025781;28;20034;-68
2023/09/10 10:16:57;;;;;;;20.48;12.88;;;;;;;28.01;63.15;101134.63;6024670;28;20030;-68
2023/09/10 10:19:52;;;;;;;21.30;13.35;;;;;;;28.28;61.56;101146.50;6024026;28;20030;-68
2023/09/10 10:22:48;;;;;;;14.68;9.90;;;;;;;28.61;61.45;101140.09;6025876;28;20037;-69
2023/09/10 10:25:45;;;;;;;17.33;10.27;;;;;;;28.69;60.38;101138.88;6025201;28;20469;-67
2023/09/10 10:28:42;;;;;;;17.95;11.68;;;;;;;28.51;61.68;101128.25;6025682;28;20038;-68
2023/09/10 10:31:39;;;;;;;17.58;12.65;;;;;;;28.59;61.00;101125.06;6017990;28;20034;-68
2023/09/10 10:34:37;;;;;;;19.92;10.57;;;;;;;28.56;60.40;101103.72;6025025;28;20049;-68
2023/09/10 10:37:42;;;;;;;16.52;12.48;;;;;;;28.83;59.97;101132.75;6025673;28;20034;-68
2023/09/10 10:40:39;;;;;;;20.13;12.00;;;;;;;28.75;60.29;101129.66;6025424;28;20470;-68
2023/09/10 10:43:41;;;;;;;17.77;13.40;;;;;;;28.64;60.00;101125.16;6039963;28;20034;-68
2023/09/10 10:46:38;;;;;;;16.52;11.68;;;;;;;28.72;60.06;101114.63;6025324;28;20038;-68
2023/09/10 10:49:34;;;;;;;16.50;11.80;;;;;;;28.46;60.76;101109.03;6025913;28;20030;-68
2023/09/10 10:52:31;;;;;;;22.48;12.82;;;;;;;28.80;58.90;101111.44;6024750;28;20092;-68
2023/09/10 10:55:27;;;;;;;17.88;11.02;;;;;;;28.85;58.71;101105.19;6025143;28;20496;-68
2023/09/10 10:58:23;;;;;;;15.40;10.75;;;;;;;28.85;58.98;101107.91;6023837;28;20038;-69
2023/09/10 11:01:18;;;;;;;13.43;10.05;;;;;;;28.66;59.39;101098.41;6027895;28;20034;-68
2023/09/10 11:04:20;;;;;;;16.93;10.27;;;;;;;28.83;58.81;101096.44;6024867;28;20097;-69
2023/09/10 11:07:19;;;;;;;15.55;9.95;;;;;;;28.89;58.51;101088.00;6024955;28;20109;-68
2023/09/10 11:10:29;;;;;;;18.85;10.73;;;;;;;29.19;56.64;101101.16;6025303;28;20026;-68
2023/09/10 11:13:24;;;;;;;17.35;11.05;;;;;;;29.13;55.94;101084.97;6018036;28;20042;-69
2023/09/10 11:16:20;;;;;;;15.07;10.57;;;;;;;29.25;56.15;101100.16;6029820;28;20042;-68
2023/09/10 11:19:44;;;;;;;18.47;9.87;;;;;;;29.35;55.54;101096.69;6030012;28;20049;-68
2023/09/10 11:23:05;;;;;;;14.00;9.50;;;;;;;29.56;55.10;101092.19;6030144;28;20042;-69
2023/09/10 11:26:12;;;;;;;18.30;10.50;;;;;;;29.22;55.50;101094.38;6026634;28;20023;-69
2023/09/10 11:29:07;;;;;;;18.73;11.65;;;;;;;28.88;55.90;101096.47;6029512;28;20061;-69
2023/09/10 11:32:16;;;;;;;14.20;8.77;;;;;;;29.67;54.57;101078.34;6029702;28;20032;-69
2023/09/10 11:35:17;;;;;;;16.00;9.68;;;;;;;29.83;53.40;101082.84;6029051;28;20277;-69
2023/09/10 11:38:13;;;;;;;17.92;10.63;;;;;;;29.43;53.26;101050.53;6029443;28;20041;-69
2023/09/10 11:41:08;;;;;;;20.48;10.43;;;;;;;29.12;54.33;101069.66;6027433;28;20062;-69
2023/09/10 11:44:04;;;;;;;14.40;8.85;;;;;;;29.54;53.82;101073.34;6025379;28;20069;-68
2023/09/10 11:46:59;;;;;;;11.50;8.55;;;;;;;29.80;52.41;101060.66;6029164;28;20474;-69
2023/09/10 11:50:04;;;;;;;13.23;8.90;;;;;;;29.85;52.80;101067.00;6029200;28;20412;-68
2023/09/10 11:52:59;;;;;;;14.82;8.30;;;;;;;29.90;52.46;101088.06;6027469;28;20030;-68
2023/09/10 11:55:55;;;;;;;14.60;7.83;;;;;;;30.18;51.33;101073.19;6029051;28;20042;-69
2023/09/10 11:58:50;;;;;;;15.13;8.33;;;;;;;30.50;49.86;101082.94;6029051;28;20042;-69
2023/09/10 12:01:46;;;;;;;13.30;8.10;;;;;;;30.57;49.45;101071.75;6028961;28;20353;-69
2023/09/10 12:04:41;;;;;;;11.60;8.23;;;;;;;30.70;49.33;101067.66;6028482;28;20336;-69
2023/09/10 12:07:37;;;;;;;12.85;7.90;;;;;;;30.60;49.31;101066.53;6028808;28;20508;-69
2023/09/10 12:10:32;;;;;;;12.52;9.38;;;;;;;30.37;48.41;101061.53;6029051;28;20362;-69
2023/09/10 12:13:28;;;;;;;11.38;7.72;;;;;;;30.55;49.20;101063.78;6028405;28;20489;-69
2023/09/10 12:16:23;;;;;;;10.60;7.33;;;;;;;30.57;49.47;101061.63;6028496;28;20038;-69
2023/09/10 12:19:19;;;;;;;13.10;7.87;;;;;;;30.57;48.65;101056.13;6028396;28;20282;-69
2023/09/10 12:22:18;;;;;;;14.57;7.75;;;;;;;30.55;47.65;101068.41;6022095;28;20269;-69
2023/09/10 12:25:13;;;;;;;13.15;7.53;;;;;;;30.56;47.51;101059.94;6027338;28;20063;-69
2023/09/10 12:28:08;;;;;;;11.82;8.25;;;;;;;30.16;47.70;101048.00;6030506;28;20056;-69
2023/09/10 12:31:04;;;;;;;12.80;8.00;;;;;;;30.07;49.04;101051.25;6043279;28;20046;-68
2023/09/10 12:34:00;;;;;;;9.85;6.75;;;;;;;30.49;46.44;101045.69;6027746;28;20038;-69
2023/09/10 12:36:56;;;;;;;11.73;7.85;;;;;;;30.31;46.03;101051.63;6028475;28;20401;-68
2023/09/10 12:39:52;;;;;;;9.40;7.10;;;;;;;30.21;45.85;101040.63;6028213;28;20524;-69
2023/09/10 12:42:51;;;;;;;13.07;6.50;;;;;;;30.59;44.59;101058.59;6030619;28;20034;-69
2023/09/10 12:45:47;;;;;;;11.48;7.10;;;;;;;30.89;42.92;101047.69;6027603;28;20469;-68
2023/09/10 12:48:42;;;;;;;11.95;6.32;;;;;;;30.63;43.31;101035.88;6028003;28;20030;-68
2023/09/10 12:51:38;;;;;;;13.90;7.05;;;;;;;30.73;44.19;101056.16;6041090;28;20544;-69
2023/09/10 12:54:34;;;;;;;12.60;8.07;;;;;;;30.86;44.24;101041.94;6042267;28;20378;-68
2023/09/10 12:57:32;;;;;;;11.38;6.90;;;;;;;30.77;43.62;101038.06;6042982;28;20033;-68
2023/09/10 13:00:28;;;;;;;12.43;7.07;;;;;;;31.20;42.73;101032.13;6019881;28;20044;-68
2023/09/10 13:03:25;;;;;;;10.00;7.47;;;;;;;30.91;43.68;101044.66;6027106;28;20030;-69
2023/09/10 13:06:20;;;;;;;13.60;7.55;;;;;;;31.12;43.97;101038.97;6027428;28;20134;-69
2023/09/10 13:09:16;;;;;;;10.17;8.17;;;;;;;31.52;44.46;101032.69;6026350;28;20045;-69
2023/09/10 13:12:11;;;;;;;11.00;7.45;;;;;;;31.64;45.04;101038.66;6027327;28;20030;-69
2023/09/10 13:15:07;;;;;;;9.53;6.47;;;;;;;31.15;44.23;101023.88;6026870;28;20066;-69
2023/09/10 13:18:02;;;;;;;13.02;7.18;;;;;;;31.03;45.36;101034.31;6026926;28;20372;-69
2023/09/10 13:20:58;;;;;;;9.30;6.85;;;;;;;31.31;43.80;101033.75;6027288;28;20108;-69
2023/09/10 13:23:53;;;;;;;14.02;7.50;;;;;;;30.93;42.83;101026.09;6026456;28;20026;-68